sensor_id;sensor_type;location;lat;lon;timestamp;P1;durP1;ratioP1;P2;durP2;ratioP2
74229;SDS011;62589;12.568;99.958;2023-06-14T00:02:10;12.35;;;8.55;;
74229;SDS011;62589;12.568;99.958;2023-06-14T00:04:36;9.45;;;7.28;;
74229;SDS011;62589;12.568;99.958;2023-06-14T00:07:05;8.82;;;4.65;;
74229;SDS011;62589;12.568;99.958;2023-06-14T00:09:34;6.13;;;4.63;;
74229;SDS011;62589;12.568;99.958;2023-06-14T00:12:01;10.57;;;3.83;;
74229;SDS011;62589;12.568;99.958;2023-06-14T00:14:27;5.32;;;3.70;;
74229;SDS011;62589;12.568;99.958;2023-06-14T00:16:54;5.75;;;3.00;;
74229;SDS011;62589;12.568;99.958;2023-06-14T00:19:24;9.13;;;3.85;;
74229;SDS011;62589;12.568;99.958;2023-06-14T00:21:51;3.58;;;2.22;;
74229;SDS011;62589;12.568;99.958;2023-06-14T00:24:18;3.10;;;1.67;;
74229;SDS011;62589;12.568;99.958;2023-06-14T00:26:45;4.97;;;1.45;;
74229;SDS011;62589;12.568;99.958;2023-06-14T00:29:11;2.45;;;0.88;;
74229;SDS011;62589;12.568;99.958;2023-06-14T00:31:38;2.67;;;1.27;;
74229;SDS011;62589;12.568;99.958;2023-06-14T00:34:04;4.43;;;1.67;;
74229;SDS011;62589;12.568;99.958;2023-06-14T00:36:30;5.07;;;2.13;;
74229;SDS011;62589;12.568;99.958;2023-06-14T00:38:57;5.32;;;2.42;;
74229;SDS011;62589;12.568;99.958;2023-06-14T00:41:23;3.83;;;2.17;;
74229;SDS011;62589;12.568;99.958;2023-06-14T00:43:50;5.47;;;2.33;;
74229;SDS011;62589;12.568;99.958;2023-06-14T00:46:17;2.90;;;1.55;;
74229;SDS011;62589;12.568;99.958;2023-06-14T00:48:44;3.90;;;1.13;;
74229;SDS011;62589;12.568;99.958;2023-06-14T00:51:11;2.33;;;0.80;;
74229;SDS011;62589;12.568;99.958;2023-06-14T00:53:37;2.92;;;0.80;;
74229;SDS011;62589;12.568;99.958;2023-06-14T00:56:05;3.08;;;0.40;;
74229;SDS011;62589;12.568;99.958;2023-06-14T00:58:32;1.15;;;0.30;;
74229;SDS011;62589;12.568;99.958;2023-06-14T01:00:58;0.40;;;0.30;;
74229;SDS011;62589;12.568;99.958;2023-06-14T01:03:25;0.75;;;0.10;;
74229;SDS011;62589;12.568;99.958;2023-06-14T01:05:56;0.77;;;0.10;;
74229;SDS011;62589;12.568;99.958;2023-06-14T01:08:41;1.73;;;0.10;;
74229;SDS011;62589;12.568;99.958;2023-06-14T01:11:19;1.42;;;0.00;;
74229;SDS011;62589;12.568;99.958;2023-06-14T01:13:52;2.72;;;0.30;;
74229;SDS011;62589;12.568;99.958;2023-06-14T01:16:21;0.82;;;0.10;;
74229;SDS011;62589;12.568;99.958;2023-06-14T01:18:48;2.45;;;0.20;;
74229;SDS011;62589;12.568;99.958;2023-06-14T01:21:21;0.40;;;0.10;;
74229;SDS011;62589;12.568;99.958;2023-06-14T01:23:49;2.28;;;0.10;;
74229;SDS011;62589;12.568;99.958;2023-06-14T01:26:21;1.48;;;0.10;;
74229;SDS011;62589;12.568;99.958;2023-06-14T01:28:48;1.40;;;0.10;;
74229;SDS011;62589;12.568;99.958;2023-06-14T01:31:19;0.77;;;0.05;;
74229;SDS011;62589;12.568;99.958;2023-06-14T01:33:48;1.60;;;0.20;;
74229;SDS011;62589;12.568;99.958;2023-06-14T01:36:17;2.42;;;0.43;;
74229;SDS011;62589;12.568;99.958;2023-06-14T01:38:45;1.88;;;0.80;;
74229;SDS011;62589;12.568;99.958;2023-06-14T01:41:15;2.47;;;0.52;;
74229;SDS011;62589;12.568;99.958;2023-06-14T01:43:44;1.27;;;0.30;;
74229;SDS011;62589;12.568;99.958;2023-06-14T01:46:13;1.05;;;0.73;;
74229;SDS011;62589;12.568;99.958;2023-06-14T01:48:42;1.38;;;0.70;;
74229;SDS011;62589;12.568;99.958;2023-06-14T01:51:09;1.90;;;0.40;;
74229;SDS011;62589;12.568;99.958;2023-06-14T01:53:35;1.08;;;0.40;;
74229;SDS011;62589;12.568;99.958;2023-06-14T01:56:02;2.25;;;0.38;;
74229;SDS011;62589;12.568;99.958;2023-06-14T01:58:28;2.25;;;0.50;;
74229;SDS011;62589;12.568;99.958;2023-06-14T02:00:55;1.75;;;0.40;;
74229;SDS011;62589;12.568;99.958;2023-06-14T02:03:22;5.18;;;0.95;;
74229;SDS011;62589;12.568;99.958;2023-06-14T02:05:49;2.42;;;1.00;;
74229;SDS011;62589;12.568;99.958;2023-06-14T02:08:15;3.47;;;1.30;;
74229;SDS011;62589;12.568;99.958;2023-06-14T02:10:42;2.67;;;1.42;;
74229;SDS011;62589;12.568;99.958;2023-06-14T02:13:09;6.10;;;2.08;;
74229;SDS011;62589;12.568;99.958;2023-06-14T02:15:35;3.35;;;1.38;;
74229;SDS011;62589;12.568;99.958;2023-06-14T02:18:02;2.28;;;0.93;;
74229;SDS011;62589;12.568;99.958;2023-06-14T02:20:29;2.70;;;1.20;;
74229;SDS011;62589;12.568;99.958;2023-06-14T02:22:56;3.95;;;2.00;;
74229;SDS011;62589;12.568;99.958;2023-06-14T02:25:23;3.80;;;1.90;;
74229;SDS011;62589;12.568;99.958;2023-06-14T02:27:49;2.92;;;2.03;;
74229;SDS011;62589;12.568;99.958;2023-06-14T02:30:16;4.85;;;2.50;;
74229;SDS011;62589;12.568;99.958;2023-06-14T02:32:42;4.65;;;3.42;;
74229;SDS011;62589;12.568;99.958;2023-06-14T02:35:09;4.72;;;2.72;;
74229;SDS011;62589;12.568;99.958;2023-06-14T02:37:35;4.82;;;2.80;;
74229;SDS011;62589;12.568;99.958;2023-06-14T02:40:02;4.65;;;2.30;;
74229;SDS011;62589;12.568;99.958;2023-06-14T02:42:29;2.83;;;1.88;;
74229;SDS011;62589;12.568;99.958;2023-06-14T02:44:55;7.70;;;1.08;;
74229;SDS011;62589;12.568;99.958;2023-06-14T02:47:22;2.45;;;1.20;;
74229;SDS011;62589;12.568;99.958;2023-06-14T02:49:48;2.28;;;1.00;;
74229;SDS011;62589;12.568;99.958;2023-06-14T02:52:15;2.78;;;0.73;;
74229;SDS011;62589;12.568;99.958;2023-06-14T02:54:42;4.28;;;1.17;;
74229;SDS011;62589;12.568;99.958;2023-06-14T02:57:08;2.63;;;0.80;;
74229;SDS011;62589;12.568;99.958;2023-06-14T02:59:35;5.03;;;1.35;;
74229;SDS011;62589;12.568;99.958;2023-06-14T03:02:02;3.40;;;1.30;;
74229;SDS011;62589;12.568;99.958;2023-06-14T03:04:28;4.20;;;1.35;;
74229;SDS011;62589;12.568;99.958;2023-06-14T03:07:02;3.75;;;0.73;;
74229;SDS011;62589;12.568;99.958;2023-06-14T03:09:37;5.13;;;0.80;;
74229;SDS011;62589;12.568;99.958;2023-06-14T03:12:05;4.65;;;0.93;;
74229;SDS011;62589;12.568;99.958;2023-06-14T03:14:32;2.78;;;0.57;;
74229;SDS011;62589;12.568;99.958;2023-06-14T03:17:00;3.83;;;1.90;;
74229;SDS011;62589;12.568;99.958;2023-06-14T03:19:26;3.70;;;0.90;;
74229;SDS011;62589;12.568;99.958;2023-06-14T03:21:53;5.35;;;0.60;;
74229;SDS011;62589;12.568;99.958;2023-06-14T03:24:23;4.30;;;0.70;;
74229;SDS011;62589;12.568;99.958;2023-06-14T03:26:53;4.50;;;0.50;;
74229;SDS011;62589;12.568;99.958;2023-06-14T03:29:19;3.25;;;0.45;;
74229;SDS011;62589;12.568;99.958;2023-06-14T03:31:56;6.75;;;0.60;;
74229;SDS011;62589;12.568;99.958;2023-06-14T03:34:24;1.60;;;0.20;;
74229;SDS011;62589;12.568;99.958;2023-06-14T03:36:50;1.85;;;0.43;;
74229;SDS011;62589;12.568;99.958;2023-06-14T03:39:17;2.22;;;0.52;;
74229;SDS011;62589;12.568;99.958;2023-06-14T03:41:43;1.48;;;0.40;;
74229;SDS011;62589;12.568;99.958;2023-06-14T03:44:10;3.40;;;0.50;;
74229;SDS011;62589;12.568;99.958;2023-06-14T03:46:36;4.22;;;0.30;;
74229;SDS011;62589;12.568;99.958;2023-06-14T03:49:03;1.60;;;0.28;;
74229;SDS011;62589;12.568;99.958;2023-06-14T03:51:29;8.27;;;3.00;;
74229;SDS011;62589;12.568;99.958;2023-06-14T03:53:55;5.25;;;1.30;;
74229;SDS011;62589;12.568;99.958;2023-06-14T03:56:22;2.60;;;0.70;;
74229;SDS011;62589;12.568;99.958;2023-06-14T03:58:48;0.75;;;0.10;;
74229;SDS011;62589;12.568;99.958;2023-06-14T04:01:15;1.73;;;0.22;;
74229;SDS011;62589;12.568;99.958;2023-06-14T04:03:41;1.30;;;0.32;;
74229;SDS011;62589;12.568;99.958;2023-06-14T04:06:07;2.38;;;0.30;;
74229;SDS011;62589;12.568;99.958;2023-06-14T04:08:34;6.28;;;0.90;;
74229;SDS011;62589;12.568;99.958;2023-06-14T04:11:01;1.30;;;0.40;;
74229;SDS011;62589;12.568;99.958;2023-06-14T04:13:27;1.15;;;0.32;;
74229;SDS011;62589;12.568;99.958;2023-06-14T04:15:54;3.35;;;0.45;;
74229;SDS011;62589;12.568;99.958;2023-06-14T04:18:22;2.78;;;0.30;;
74229;SDS011;62589;12.568;99.958;2023-06-14T04:20:49;2.22;;;0.32;;
74229;SDS011;62589;12.568;99.958;2023-06-14T04:23:16;3.17;;;0.47;;
74229;SDS011;62589;12.568;99.958;2023-06-14T04:25:46;4.93;;;0.40;;
74229;SDS011;62589;12.568;99.958;2023-06-14T04:28:14;2.78;;;0.30;;
74229;SDS011;62589;12.568;99.958;2023-06-14T04:30:42;3.00;;;0.25;;
74229;SDS011;62589;12.568;99.958;2023-06-14T04:33:12;3.13;;;0.30;;
74229;SDS011;62589;12.568;99.958;2023-06-14T04:35:40;3.33;;;0.50;;
74229;SDS011;62589;12.568;99.958;2023-06-14T04:38:06;1.92;;;0.30;;
74229;SDS011;62589;12.568;99.958;2023-06-14T04:40:35;2.95;;;0.28;;
74229;SDS011;62589;12.568;99.958;2023-06-14T04:43:08;1.98;;;0.40;;
74229;SDS011;62589;12.568;99.958;2023-06-14T04:45:37;4.60;;;0.80;;
74229;SDS011;62589;12.568;99.958;2023-06-14T04:48:05;2.00;;;0.20;;
74229;SDS011;62589;12.568;99.958;2023-06-14T04:50:32;3.65;;;0.80;;
74229;SDS011;62589;12.568;99.958;2023-06-14T04:52:58;2.13;;;0.50;;
74229;SDS011;62589;12.568;99.958;2023-06-14T04:55:25;2.35;;;0.60;;
74229;SDS011;62589;12.568;99.958;2023-06-14T04:57:51;5.25;;;0.65;;
74229;SDS011;62589;12.568;99.958;2023-06-14T05:00:21;4.28;;;0.52;;
74229;SDS011;62589;12.568;99.958;2023-06-14T05:02:48;3.08;;;1.10;;
74229;SDS011;62589;12.568;99.958;2023-06-14T05:05:16;3.15;;;1.10;;
74229;SDS011;62589;12.568;99.958;2023-06-14T05:07:43;3.50;;;1.42;;
74229;SDS011;62589;12.568;99.958;2023-06-14T05:10:12;2.72;;;0.80;;
74229;SDS011;62589;12.568;99.958;2023-06-14T05:12:39;9.77;;;4.75;;
74229;SDS011;62589;12.568;99.958;2023-06-14T05:15:06;10.00;;;4.18;;
74229;SDS011;62589;12.568;99.958;2023-06-14T05:17:34;4.40;;;2.17;;
74229;SDS011;62589;12.568;99.958;2023-06-14T05:20:01;3.22;;;1.17;;
74229;SDS011;62589;12.568;99.958;2023-06-14T05:22:28;5.72;;;1.40;;
74229;SDS011;62589;12.568;99.958;2023-06-14T05:24:55;2.80;;;0.93;;
74229;SDS011;62589;12.568;99.958;2023-06-14T05:27:21;3.65;;;0.65;;
74229;SDS011;62589;12.568;99.958;2023-06-14T05:29:48;2.63;;;0.47;;
74229;SDS011;62589;12.568;99.958;2023-06-14T05:32:15;2.13;;;0.50;;
74229;SDS011;62589;12.568;99.958;2023-06-14T05:34:42;1.80;;;0.30;;
74229;SDS011;62589;12.568;99.958;2023-06-14T05:37:09;2.17;;;0.30;;
74229;SDS011;62589;12.568;99.958;2023-06-14T05:39:35;1.17;;;0.10;;
74229;SDS011;62589;12.568;99.958;2023-06-14T05:42:02;3.42;;;0.38;;
74229;SDS011;62589;12.568;99.958;2023-06-14T05:44:28;1.00;;;0.20;;
74229;SDS011;62589;12.568;99.958;2023-06-14T05:46:55;1.67;;;0.30;;
74229;SDS011;62589;12.568;99.958;2023-06-14T05:49:21;0.95;;;0.40;;
74229;SDS011;62589;12.568;99.958;2023-06-14T05:51:48;1.33;;;0.30;;
74229;SDS011;62589;12.568;99.958;2023-06-14T05:54:14;2.70;;;0.47;;
74229;SDS011;62589;12.568;99.958;2023-06-14T05:56:40;1.98;;;0.30;;
74229;SDS011;62589;12.568;99.958;2023-06-14T05:59:07;2.72;;;0.50;;
74229;SDS011;62589;12.568;99.958;2023-06-14T06:01:33;1.27;;;0.30;;
74229;SDS011;62589;12.568;99.958;2023-06-14T06:04:02;2.35;;;0.28;;
74229;SDS011;62589;12.568;99.958;2023-06-14T06:06:28;3.35;;;0.38;;
74229;SDS011;62589;12.568;99.958;2023-06-14T06:08:55;2.30;;;0.40;;
74229;SDS011;62589;12.568;99.958;2023-06-14T06:11:21;3.78;;;0.65;;
74229;SDS011;62589;12.568;99.958;2023-06-14T06:13:48;1.58;;;0.52;;
74229;SDS011;62589;12.568;99.958;2023-06-14T06:16:15;3.58;;;0.80;;
74229;SDS011;62589;12.568;99.958;2023-06-14T06:18:41;5.10;;;0.65;;
74229;SDS011;62589;12.568;99.958;2023-06-14T06:21:07;6.68;;;0.73;;
74229;SDS011;62589;12.568;99.958;2023-06-14T06:23:34;2.55;;;0.60;;
74229;SDS011;62589;12.568;99.958;2023-06-14T06:26:01;3.33;;;0.55;;
74229;SDS011;62589;12.568;99.958;2023-06-14T06:28:27;3.40;;;0.63;;
74229;SDS011;62589;12.568;99.958;2023-06-14T06:30:54;0.70;;;0.13;;
74229;SDS011;62589;12.568;99.958;2023-06-14T06:33:21;3.03;;;0.38;;
74229;SDS011;62589;12.568;99.958;2023-06-14T06:35:47;4.03;;;0.60;;
74229;SDS011;62589;12.568;99.958;2023-06-14T06:38:13;3.90;;;0.50;;
74229;SDS011;62589;12.568;99.958;2023-06-14T06:40:40;5.43;;;0.70;;
74229;SDS011;62589;12.568;99.958;2023-06-14T06:43:06;5.68;;;0.40;;
74229;SDS011;62589;12.568;99.958;2023-06-14T06:45:33;4.28;;;0.45;;
74229;SDS011;62589;12.568;99.958;2023-06-14T06:47:59;7.82;;;1.65;;
74229;SDS011;62589;12.568;99.958;2023-06-14T06:50:26;4.20;;;0.93;;
74229;SDS011;62589;12.568;99.958;2023-06-14T06:52:52;5.18;;;0.90;;
74229;SDS011;62589;12.568;99.958;2023-06-14T06:55:18;4.30;;;0.50;;
74229;SDS011;62589;12.568;99.958;2023-06-14T06:57:45;5.32;;;1.02;;
74229;SDS011;62589;12.568;99.958;2023-06-14T07:00:12;4.18;;;1.00;;
74229;SDS011;62589;12.568;99.958;2023-06-14T07:02:38;4.38;;;0.77;;
74229;SDS011;62589;12.568;99.958;2023-06-14T07:05:05;3.10;;;0.80;;
74229;SDS011;62589;12.568;99.958;2023-06-14T07:07:32;1.58;;;0.20;;
74229;SDS011;62589;12.568;99.958;2023-06-14T07:09:58;3.35;;;0.45;;
74229;SDS011;62589;12.568;99.958;2023-06-14T07:12:25;3.30;;;0.50;;
74229;SDS011;62589;12.568;99.958;2023-06-14T07:14:52;2.53;;;0.20;;
74229;SDS011;62589;12.568;99.958;2023-06-14T07:17:18;2.00;;;0.20;;
74229;SDS011;62589;12.568;99.958;2023-06-14T07:19:44;3.63;;;0.40;;
74229;SDS011;62589;12.568;99.958;2023-06-14T07:22:11;3.08;;;0.40;;
74229;SDS011;62589;12.568;99.958;2023-06-14T07:24:37;3.70;;;0.40;;
74229;SDS011;62589;12.568;99.958;2023-06-14T07:27:05;2.70;;;0.40;;
74229;SDS011;62589;12.568;99.958;2023-06-14T07:29:33;2.45;;;0.47;;
74229;SDS011;62589;12.568;99.958;2023-06-14T07:31:59;4.53;;;0.50;;
74229;SDS011;62589;12.568;99.958;2023-06-14T07:34:25;3.00;;;0.40;;
74229;SDS011;62589;12.568;99.958;2023-06-14T07:36:52;2.63;;;0.20;;
74229;SDS011;62589;12.568;99.958;2023-06-14T07:39:19;3.67;;;0.35;;
74229;SDS011;62589;12.568;99.958;2023-06-14T07:41:46;3.55;;;0.65;;
74229;SDS011;62589;12.568;99.958;2023-06-14T07:44:12;3.10;;;0.40;;
74229;SDS011;62589;12.568;99.958;2023-06-14T07:46:38;3.20;;;0.40;;
74229;SDS011;62589;12.568;99.958;2023-06-14T07:49:05;3.38;;;0.30;;
74229;SDS011;62589;12.568;99.958;2023-06-14T07:51:32;3.70;;;0.30;;
74229;SDS011;62589;12.568;99.958;2023-06-14T07:53:59;2.45;;;0.30;;
74229;SDS011;62589;12.568;99.958;2023-06-14T07:56:28;1.00;;;0.30;;
74229;SDS011;62589;12.568;99.958;2023-06-14T07:58:54;4.47;;;0.40;;
74229;SDS011;62589;12.568;99.958;2023-06-14T08:01:20;2.08;;;0.28;;
74229;SDS011;62589;12.568;99.958;2023-06-14T08:03:49;4.15;;;0.45;;
74229;SDS011;62589;12.568;99.958;2023-06-14T08:06:16;3.60;;;0.40;;
74229;SDS011;62589;12.568;99.958;2023-06-14T08:08:42;4.00;;;0.50;;
74229;SDS011;62589;12.568;99.958;2023-06-14T08:11:08;3.05;;;0.50;;
74229;SDS011;62589;12.568;99.958;2023-06-14T08:13:35;3.88;;;0.50;;
74229;SDS011;62589;12.568;99.958;2023-06-14T08:16:01;1.95;;;0.43;;
74229;SDS011;62589;12.568;99.958;2023-06-14T08:18:30;1.58;;;0.30;;
74229;SDS011;62589;12.568;99.958;2023-06-14T08:20:56;3.30;;;0.57;;
74229;SDS011;62589;12.568;99.958;2023-06-14T08:23:23;2.63;;;0.70;;
74229;SDS011;62589;12.568;99.958;2023-06-14T08:25:50;2.85;;;0.30;;
74229;SDS011;62589;12.568;99.958;2023-06-14T08:28:16;1.88;;;0.50;;
74229;SDS011;62589;12.568;99.958;2023-06-14T08:30:43;3.20;;;0.45;;
74229;SDS011;62589;12.568;99.958;2023-06-14T08:33:09;3.22;;;0.45;;
74229;SDS011;62589;12.568;99.958;2023-06-14T08:35:35;4.13;;;0.40;;
74229;SDS011;62589;12.568;99.958;2023-06-14T08:38:03;4.20;;;0.50;;
74229;SDS011;62589;12.568;99.958;2023-06-14T08:40:30;1.88;;;0.30;;
74229;SDS011;62589;12.568;99.958;2023-06-14T08:42:57;3.67;;;0.20;;
74229;SDS011;62589;12.568;99.958;2023-06-14T08:45:24;1.95;;;0.20;;
74229;SDS011;62589;12.568;99.958;2023-06-14T08:47:50;2.83;;;0.38;;
74229;SDS011;62589;12.568;99.958;2023-06-14T08:50:25;2.15;;;0.30;;
74229;SDS011;62589;12.568;99.958;2023-06-14T08:52:55;3.15;;;0.35;;
74229;SDS011;62589;12.568;99.958;2023-06-14T08:55:25;3.00;;;0.40;;
74229;SDS011;62589;12.568;99.958;2023-06-14T08:57:53;1.20;;;0.32;;
74229;SDS011;62589;12.568;99.958;2023-06-14T09:00:23;1.83;;;0.50;;
74229;SDS011;62589;12.568;99.958;2023-06-14T09:02:51;2.75;;;0.65;;
74229;SDS011;62589;12.568;99.958;2023-06-14T09:05:23;4.40;;;0.50;;
74229;SDS011;62589;12.568;99.958;2023-06-14T09:07:53;2.35;;;0.38;;
74229;SDS011;62589;12.568;99.958;2023-06-14T09:10:21;3.03;;;0.70;;
74229;SDS011;62589;12.568;99.958;2023-06-14T09:12:51;2.10;;;0.20;;
74229;SDS011;62589;12.568;99.958;2023-06-14T09:15:17;3.85;;;0.50;;
74229;SDS011;62589;12.568;99.958;2023-06-14T09:17:43;4.47;;;0.50;;
74229;SDS011;62589;12.568;99.958;2023-06-14T09:20:10;3.70;;;0.77;;
74229;SDS011;62589;12.568;99.958;2023-06-14T09:22:43;1.35;;;0.32;;
74229;SDS011;62589;12.568;99.958;2023-06-14T09:25:10;1.13;;;0.40;;
74229;SDS011;62589;12.568;99.958;2023-06-14T09:27:41;2.53;;;0.50;;
74229;SDS011;62589;12.568;99.958;2023-06-14T09:30:10;1.58;;;0.25;;
74229;SDS011;62589;12.568;99.958;2023-06-14T09:32:38;1.88;;;0.38;;
74229;SDS011;62589;12.568;99.958;2023-06-14T09:35:06;2.78;;;0.55;;
74229;SDS011;62589;12.568;99.958;2023-06-14T09:37:33;5.00;;;0.70;;
74229;SDS011;62589;12.568;99.958;2023-06-14T09:40:00;2.53;;;0.85;;
74229;SDS011;62589;12.568;99.958;2023-06-14T09:42:29;2.97;;;0.65;;
74229;SDS011;62589;12.568;99.958;2023-06-14T09:44:55;3.58;;;0.50;;
74229;SDS011;62589;12.568;99.958;2023-06-14T09:47:23;3.35;;;0.50;;
74229;SDS011;62589;12.568;99.958;2023-06-14T09:49:51;2.35;;;0.55;;
74229;SDS011;62589;12.568;99.958;2023-06-14T09:52:20;2.30;;;0.30;;
74229;SDS011;62589;12.568;99.958;2023-06-14T09:54:52;1.63;;;0.30;;
74229;SDS011;62589;12.568;99.958;2023-06-14T09:57:21;1.88;;;0.20;;
74229;SDS011;62589;12.568;99.958;2023-06-14T09:59:49;1.88;;;0.20;;
74229;SDS011;62589;12.568;99.958;2023-06-14T10:02:25;2.08;;;0.30;;
74229;SDS011;62589;12.568;99.958;2023-06-14T10:05:04;1.70;;;0.30;;
74229;SDS011;62589;12.568;99.958;2023-06-14T10:07:34;2.90;;;0.55;;
74229;SDS011;62589;12.568;99.958;2023-06-14T10:10:06;1.17;;;0.20;;
74229;SDS011;62589;12.568;99.958;2023-06-14T10:12:33;1.52;;;0.20;;
74229;SDS011;62589;12.568;99.958;2023-06-14T10:14:59;2.60;;;0.20;;
74229;SDS011;62589;12.568;99.958;2023-06-14T10:20:18;2.22;;;0.30;;
74229;SDS011;62589;12.568;99.958;2023-06-14T10:25:49;2.58;;;0.38;;
74229;SDS011;62589;12.568;99.958;2023-06-14T10:28:21;2.63;;;0.45;;
74229;SDS011;62589;12.568;99.958;2023-06-14T10:33:40;1.65;;;0.47;;
74229;SDS011;62589;12.568;99.958;2023-06-14T10:36:26;3.40;;;0.73;;
74229;SDS011;62589;12.568;99.958;2023-06-14T10:41:53;2.47;;;0.70;;
74229;SDS011;62589;12.568;99.958;2023-06-14T10:49:50;2.47;;;0.60;;
74229;SDS011;62589;12.568;99.958;2023-06-14T10:52:21;5.40;;;1.08;;
74229;SDS011;62589;12.568;99.958;2023-06-14T10:57:37;3.35;;;0.93;;
74229;SDS011;62589;12.568;99.958;2023-06-14T11:00:05;2.83;;;0.85;;
74229;SDS011;62589;12.568;99.958;2023-06-14T11:11:11;1.58;;;0.55;;
74229;SDS011;62589;12.568;99.958;2023-06-14T11:13:41;4.68;;;0.70;;
74229;SDS011;62589;12.568;99.958;2023-06-14T11:16:12;1.83;;;0.38;;
74229;SDS011;62589;12.568;99.958;2023-06-14T11:18:41;3.95;;;0.95;;
74229;SDS011;62589;12.568;99.958;2023-06-14T11:21:08;3.75;;;0.77;;
74229;SDS011;62589;12.568;99.958;2023-06-14T11:23:35;4.47;;;0.98;;
74229;SDS011;62589;12.568;99.958;2023-06-14T11:26:02;3.63;;;0.70;;
74229;SDS011;62589;12.568;99.958;2023-06-14T11:28:36;4.00;;;0.57;;
74229;SDS011;62589;12.568;99.958;2023-06-14T11:31:05;3.88;;;1.15;;
74229;SDS011;62589;12.568;99.958;2023-06-14T11:33:32;4.28;;;0.65;;
74229;SDS011;62589;12.568;99.958;2023-06-14T11:36:01;2.25;;;0.50;;
74229;SDS011;62589;12.568;99.958;2023-06-14T11:38:30;3.00;;;0.75;;
74229;SDS011;62589;12.568;99.958;2023-06-14T11:41:00;3.08;;;0.60;;
74229;SDS011;62589;12.568;99.958;2023-06-14T11:43:26;3.05;;;0.60;;
74229;SDS011;62589;12.568;99.958;2023-06-14T11:45:54;3.83;;;0.55;;
74229;SDS011;62589;12.568;99.958;2023-06-14T11:48:21;2.08;;;0.57;;
74229;SDS011;62589;12.568;99.958;2023-06-14T11:50:49;3.53;;;0.60;;
74229;SDS011;62589;12.568;99.958;2023-06-14T11:53:16;3.55;;;0.70;;
74229;SDS011;62589;12.568;99.958;2023-06-14T11:55:43;4.50;;;0.70;;
74229;SDS011;62589;12.568;99.958;2023-06-14T11:58:13;3.05;;;0.50;;
74229;SDS011;62589;12.568;99.958;2023-06-14T12:00:40;5.28;;;0.70;;
74229;SDS011;62589;12.568;99.958;2023-06-14T12:03:07;3.15;;;0.90;;
74229;SDS011;62589;12.568;99.958;2023-06-14T12:05:33;9.30;;;1.42;;
74229;SDS011;62589;12.568;99.958;2023-06-14T12:08:01;3.13;;;0.80;;
74229;SDS011;62589;12.568;99.958;2023-06-14T12:10:31;2.30;;;0.68;;
74229;SDS011;62589;12.568;99.958;2023-06-14T12:13:07;3.20;;;0.55;;
74229;SDS011;62589;12.568;99.958;2023-06-14T12:15:33;2.47;;;1.25;;
74229;SDS011;62589;12.568;99.958;2023-06-14T12:18:00;6.43;;;2.10;;
74229;SDS011;62589;12.568;99.958;2023-06-14T12:20:30;2.17;;;1.02;;
74229;SDS011;62589;12.568;99.958;2023-06-14T12:22:58;5.45;;;1.63;;
74229;SDS011;62589;12.568;99.958;2023-06-14T12:25:30;5.72;;;1.33;;
74229;SDS011;62589;12.568;99.958;2023-06-14T12:28:08;5.00;;;1.65;;
74229;SDS011;62589;12.568;99.958;2023-06-14T12:30:35;8.13;;;2.42;;
74229;SDS011;62589;12.568;99.958;2023-06-14T12:33:03;4.50;;;1.60;;
74229;SDS011;62589;12.568;99.958;2023-06-14T12:35:29;4.53;;;1.35;;
74229;SDS011;62589;12.568;99.958;2023-06-14T12:37:56;4.82;;;1.30;;
74229;SDS011;62589;12.568;99.958;2023-06-14T12:40:22;3.30;;;1.10;;
74229;SDS011;62589;12.568;99.958;2023-06-14T12:42:49;5.70;;;1.40;;
74229;SDS011;62589;12.568;99.958;2023-06-14T12:45:15;4.00;;;1.17;;
74229;SDS011;62589;12.568;99.958;2023-06-14T12:47:42;4.80;;;1.08;;
74229;SDS011;62589;12.568;99.958;2023-06-14T12:50:08;3.33;;;0.85;;
74229;SDS011;62589;12.568;99.958;2023-06-14T12:52:35;3.60;;;1.00;;
74229;SDS011;62589;12.568;99.958;2023-06-14T12:55:03;2.90;;;0.73;;
74229;SDS011;62589;12.568;99.958;2023-06-14T12:57:30;2.17;;;0.80;;
74229;SDS011;62589;12.568;99.958;2023-06-14T12:59:57;2.60;;;0.93;;
74229;SDS011;62589;12.568;99.958;2023-06-14T13:02:25;3.58;;;1.17;;
74229;SDS011;62589;12.568;99.958;2023-06-14T13:04:52;2.67;;;0.93;;
74229;SDS011;62589;12.568;99.958;2023-06-14T13:07:18;3.60;;;1.15;;
74229;SDS011;62589;12.568;99.958;2023-06-14T13:09:45;3.75;;;1.15;;
74229;SDS011;62589;12.568;99.958;2023-06-14T13:12:11;3.97;;;1.10;;
74229;SDS011;62589;12.568;99.958;2023-06-14T13:14:39;5.10;;;1.20;;
74229;SDS011;62589;12.568;99.958;2023-06-14T13:17:07;3.25;;;0.43;;
74229;SDS011;62589;12.568;99.958;2023-06-14T13:19:35;4.55;;;0.80;;
74229;SDS011;62589;12.568;99.958;2023-06-14T13:22:02;3.53;;;1.00;;
74229;SDS011;62589;12.568;99.958;2023-06-14T13:24:29;3.25;;;0.70;;
74229;SDS011;62589;12.568;99.958;2023-06-14T13:26:56;5.03;;;1.00;;
74229;SDS011;62589;12.568;99.958;2023-06-14T13:29:23;3.53;;;0.85;;
74229;SDS011;62589;12.568;99.958;2023-06-14T13:31:50;3.10;;;0.70;;
74229;SDS011;62589;12.568;99.958;2023-06-14T13:34:17;2.35;;;0.60;;
74229;SDS011;62589;12.568;99.958;2023-06-14T13:36:43;3.75;;;0.80;;
74229;SDS011;62589;12.568;99.958;2023-06-14T13:39:10;2.88;;;0.90;;
74229;SDS011;62589;12.568;99.958;2023-06-14T13:41:37;4.03;;;0.73;;
74229;SDS011;62589;12.568;99.958;2023-06-14T13:44:03;2.20;;;0.63;;
74229;SDS011;62589;12.568;99.958;2023-06-14T13:46:30;2.42;;;0.63;;
74229;SDS011;62589;12.568;99.958;2023-06-14T13:48:57;1.95;;;0.60;;
74229;SDS011;62589;12.568;99.958;2023-06-14T13:51:25;2.08;;;0.40;;
74229;SDS011;62589;12.568;99.958;2023-06-14T13:53:52;4.78;;;0.60;;
74229;SDS011;62589;12.568;99.958;2023-06-14T13:56:19;2.80;;;0.40;;
74229;SDS011;62589;12.568;99.958;2023-06-14T13:58:48;2.53;;;0.68;;
74229;SDS011;62589;12.568;99.958;2023-06-14T14:01:14;1.75;;;0.40;;
74229;SDS011;62589;12.568;99.958;2023-06-14T14:03:43;1.67;;;0.43;;
74229;SDS011;62589;12.568;99.958;2023-06-14T14:06:10;1.83;;;0.40;;
74229;SDS011;62589;12.568;99.958;2023-06-14T14:08:37;1.38;;;0.52;;
74229;SDS011;62589;12.568;99.958;2023-06-14T14:11:05;3.05;;;0.50;;
74229;SDS011;62589;12.568;99.958;2023-06-14T14:13:31;2.45;;;0.47;;
74229;SDS011;62589;12.568;99.958;2023-06-14T14:15:58;3.42;;;0.40;;
74229;SDS011;62589;12.568;99.958;2023-06-14T14:18:24;5.03;;;0.50;;
74229;SDS011;62589;12.568;99.958;2023-06-14T14:20:51;2.92;;;0.38;;
74229;SDS011;62589;12.568;99.958;2023-06-14T14:23:17;1.88;;;0.55;;
74229;SDS011;62589;12.568;99.958;2023-06-14T14:25:45;1.50;;;0.20;;
74229;SDS011;62589;12.568;99.958;2023-06-14T14:28:12;1.58;;;0.40;;
74229;SDS011;62589;12.568;99.958;2023-06-14T14:30:41;2.60;;;0.30;;
74229;SDS011;62589;12.568;99.958;2023-06-14T14:33:08;3.95;;;0.47;;
74229;SDS011;62589;12.568;99.958;2023-06-14T14:35:36;1.88;;;0.38;;
74229;SDS011;62589;12.568;99.958;2023-06-14T14:38:03;2.85;;;0.32;;
74229;SDS011;62589;12.568;99.958;2023-06-14T14:40:30;4.82;;;0.43;;
74229;SDS011;62589;12.568;99.958;2023-06-14T14:42:56;2.33;;;0.30;;
74229;SDS011;62589;12.568;99.958;2023-06-14T14:45:23;2.75;;;0.35;;
74229;SDS011;62589;12.568;99.958;2023-06-14T14:47:49;3.47;;;0.57;;
74229;SDS011;62589;12.568;99.958;2023-06-14T14:50:16;2.70;;;0.50;;
74229;SDS011;62589;12.568;99.958;2023-06-14T14:52:42;2.40;;;0.45;;
74229;SDS011;62589;12.568;99.958;2023-06-14T14:55:09;2.50;;;0.60;;
74229;SDS011;62589;12.568;99.958;2023-06-14T14:57:35;1.30;;;0.40;;
74229;SDS011;62589;12.568;99.958;2023-06-14T15:00:03;2.45;;;0.57;;
74229;SDS011;62589;12.568;99.958;2023-06-14T15:02:31;2.53;;;0.60;;
74229;SDS011;62589;12.568;99.958;2023-06-14T15:04:57;1.33;;;0.25;;